sensor_id;sensor_type;location;lat;lon;timestamp;P1;durP1;ratioP1;P2;durP2;ratioP2
74945;SDS011;63509;45.250;38.102;2023-07-13T00:01:51;3.90;;;1.42;;
74945;SDS011;63509;45.250;38.102;2023-07-13T00:04:18;3.25;;;1.52;;
74945;SDS011;63509;45.250;38.102;2023-07-13T00:06:50;3.45;;;2.25;;
74945;SDS011;63509;45.250;38.102;2023-07-13T00:09:17;3.10;;;1.48;;
74945;SDS011;63509;45.250;38.102;2023-07-13T00:11:44;2.45;;;1.73;;
74945;SDS011;63509;45.250;38.102;2023-07-13T00:14:13;4.03;;;2.17;;
74945;SDS011;63509;45.250;38.102;2023-07-13T00:16:41;2.30;;;1.45;;
74945;SDS011;63509;45.250;38.102;2023-07-13T00:19:09;2.80;;;1.95;;
74945;SDS011;63509;45.250;38.102;2023-07-13T00:21:37;5.32;;;1.25;;
74945;SDS011;63509;45.250;38.102;2023-07-13T00:24:04;2.30;;;1.42;;
74945;SDS011;63509;45.250;38.102;2023-07-13T00:26:31;2.17;;;0.93;;
74945;SDS011;63509;45.250;38.102;2023-07-13T00:28:58;2.58;;;1.15;;
74945;SDS011;63509;45.250;38.102;2023-07-13T00:31:25;3.05;;;1.58;;
74945;SDS011;63509;45.250;38.102;2023-07-13T00:33:51;3.95;;;2.40;;
74945;SDS011;63509;45.250;38.102;2023-07-13T00:36:17;4.13;;;1.33;;
74945;SDS011;63509;45.250;38.102;2023-07-13T00:41:11;2.72;;;1.48;;
74945;SDS011;63509;45.250;38.102;2023-07-13T00:43:38;4.97;;;1.90;;
74945;SDS011;63509;45.250;38.102;2023-07-13T00:46:16;1.85;;;1.15;;
74945;SDS011;63509;45.250;38.102;2023-07-13T00:48:46;2.95;;;1.75;;
74945;SDS011;63509;45.250;38.102;2023-07-13T00:51:15;2.58;;;1.60;;
74945;SDS011;63509;45.250;38.102;2023-07-13T00:53:44;2.70;;;2.00;;
74945;SDS011;63509;45.250;38.102;2023-07-13T00:56:10;2.13;;;1.30;;
74945;SDS011;63509;45.250;38.102;2023-07-13T00:58:37;3.97;;;2.47;;
74945;SDS011;63509;45.250;38.102;2023-07-13T01:01:04;4.40;;;2.25;;
74945;SDS011;63509;45.250;38.102;2023-07-13T01:03:30;3.70;;;2.08;;
74945;SDS011;63509;45.250;38.102;2023-07-13T01:05:56;3.78;;;1.65;;
74945;SDS011;63509;45.250;38.102;2023-07-13T01:08:22;2.30;;;1.58;;
74945;SDS011;63509;45.250;38.102;2023-07-13T01:10:54;3.33;;;1.95;;
74945;SDS011;63509;45.250;38.102;2023-07-13T01:13:22;4.85;;;2.17;;
74945;SDS011;63509;45.250;38.102;2023-07-13T01:15:50;2.58;;;1.35;;
74945;SDS011;63509;45.250;38.102;2023-07-13T01:18:19;3.50;;;1.95;;
74945;SDS011;63509;45.250;38.102;2023-07-13T01:20:52;2.47;;;1.73;;
74945;SDS011;63509;45.250;38.102;2023-07-13T01:23:26;7.13;;;1.42;;
74945;SDS011;63509;45.250;38.102;2023-07-13T01:25:54;7.85;;;1.30;;
74945;SDS011;63509;45.250;38.102;2023-07-13T01:28:21;2.88;;;1.88;;
74945;SDS011;63509;45.250;38.102;2023-07-13T01:30:52;2.10;;;1.27;;
74945;SDS011;63509;45.250;38.102;2023-07-13T01:33:20;2.20;;;1.40;;
74945;SDS011;63509;45.250;38.102;2023-07-13T01:35:46;1.90;;;1.38;;
74945;SDS011;63509;45.250;38.102;2023-07-13T01:38:18;2.00;;;1.15;;
74945;SDS011;63509;45.250;38.102;2023-07-13T01:40:46;4.07;;;2.45;;
74945;SDS011;63509;45.250;38.102;2023-07-13T01:43:12;1.48;;;1.00;;
74945;SDS011;63509;45.250;38.102;2023-07-13T01:45:39;5.20;;;1.48;;
74945;SDS011;63509;45.250;38.102;2023-07-13T01:48:05;2.15;;;1.27;;
74945;SDS011;63509;45.250;38.102;2023-07-13T01:50:35;2.30;;;1.15;;
74945;SDS011;63509;45.250;38.102;2023-07-13T01:53:01;3.67;;;2.00;;
74945;SDS011;63509;45.250;38.102;2023-07-13T01:55:28;2.28;;;1.58;;
74945;SDS011;63509;45.250;38.102;2023-07-13T01:57:55;2.83;;;1.55;;
74945;SDS011;63509;45.250;38.102;2023-07-13T02:00:21;4.93;;;2.10;;
74945;SDS011;63509;45.250;38.102;2023-07-13T02:02:48;2.75;;;1.63;;
74945;SDS011;63509;45.250;38.102;2023-07-13T02:05:14;1.88;;;1.30;;
74945;SDS011;63509;45.250;38.102;2023-07-13T02:07:40;1.42;;;1.20;;
74945;SDS011;63509;45.250;38.102;2023-07-13T02:10:07;2.20;;;1.45;;
74945;SDS011;63509;45.250;38.102;2023-07-13T02:12:34;5.20;;;1.83;;
74945;SDS011;63509;45.250;38.102;2023-07-13T02:15:02;6.28;;;2.42;;
74945;SDS011;63509;45.250;38.102;2023-07-13T02:17:29;3.42;;;1.75;;
74945;SDS011;63509;45.250;38.102;2023-07-13T02:22:23;2.20;;;1.40;;
74945;SDS011;63509;45.250;38.102;2023-07-13T02:24:50;3.10;;;2.35;;
74945;SDS011;63509;45.250;38.102;2023-07-13T02:27:17;6.78;;;1.40;;
74945;SDS011;63509;45.250;38.102;2023-07-13T02:29:44;3.38;;;1.92;;
74945;SDS011;63509;45.250;38.102;2023-07-13T02:32:10;10.10;;;3.38;;
74945;SDS011;63509;45.250;38.102;2023-07-13T02:34:37;4.68;;;2.30;;
74945;SDS011;63509;45.250;38.102;2023-07-13T02:37:03;2.78;;;2.15;;
74945;SDS011;63509;45.250;38.102;2023-07-13T02:39:30;5.65;;;2.63;;
74945;SDS011;63509;45.250;38.102;2023-07-13T02:41:58;2.47;;;1.60;;
74945;SDS011;63509;45.250;38.102;2023-07-13T02:44:26;2.83;;;1.92;;
74945;SDS011;63509;45.250;38.102;2023-07-13T02:46:52;4.55;;;1.42;;
74945;SDS011;63509;45.250;38.102;2023-07-13T02:49:18;4.75;;;2.28;;
74945;SDS011;63509;45.250;38.102;2023-07-13T02:51:45;10.00;;;2.45;;
74945;SDS011;63509;45.250;38.102;2023-07-13T02:54:11;2.75;;;2.33;;
74945;SDS011;63509;45.250;38.102;2023-07-13T02:56:39;4.40;;;2.45;;
74945;SDS011;63509;45.250;38.102;2023-07-13T02:59:06;4.93;;;2.92;;
74945;SDS011;63509;45.250;38.102;2023-07-13T03:01:33;2.25;;;1.52;;
74945;SDS011;63509;45.250;38.102;2023-07-13T03:04:01;4.20;;;1.85;;
74945;SDS011;63509;45.250;38.102;2023-07-13T03:06:31;4.10;;;2.17;;
74945;SDS011;63509;45.250;38.102;2023-07-13T03:08:59;7.90;;;3.47;;
74945;SDS011;63509;45.250;38.102;2023-07-13T03:11:31;2.10;;;1.58;;
74945;SDS011;63509;45.250;38.102;2023-07-13T03:14:08;4.00;;;1.85;;
74945;SDS011;63509;45.250;38.102;2023-07-13T03:16:36;2.75;;;2.05;;
74945;SDS011;63509;45.250;38.102;2023-07-13T03:19:02;3.33;;;1.65;;
74945;SDS011;63509;45.250;38.102;2023-07-13T03:21:30;5.18;;;1.23;;
74945;SDS011;63509;45.250;38.102;2023-07-13T03:23:56;2.65;;;1.75;;
74945;SDS011;63509;45.250;38.102;2023-07-13T03:26:22;6.20;;;2.75;;
74945;SDS011;63509;45.250;38.102;2023-07-13T03:28:48;1.42;;;1.02;;
74945;SDS011;63509;45.250;38.102;2023-07-13T03:31:19;4.45;;;3.10;;
74945;SDS011;63509;45.250;38.102;2023-07-13T03:33:49;5.25;;;2.97;;
74945;SDS011;63509;45.250;38.102;2023-07-13T03:36:18;4.05;;;2.20;;
74945;SDS011;63509;45.250;38.102;2023-07-13T03:38:46;3.45;;;1.98;;
74945;SDS011;63509;45.250;38.102;2023-07-13T03:41:17;1.40;;;1.10;;
74945;SDS011;63509;45.250;38.102;2023-07-13T03:43:45;3.80;;;1.77;;
74945;SDS011;63509;45.250;38.102;2023-07-13T03:46:15;3.85;;;1.75;;
74945;SDS011;63509;45.250;38.102;2023-07-13T03:48:42;5.60;;;2.72;;
74945;SDS011;63509;45.250;38.102;2023-07-13T03:51:11;4.25;;;2.90;;
74945;SDS011;63509;45.250;38.102;2023-07-13T03:53:40;5.15;;;2.03;;
74945;SDS011;63509;45.250;38.102;2023-07-13T03:56:09;3.53;;;2.28;;
74945;SDS011;63509;45.250;38.102;2023-07-13T03:58:38;3.65;;;2.10;;
74945;SDS011;63509;45.250;38.102;2023-07-13T04:01:13;2.33;;;1.67;;
74945;SDS011;63509;45.250;38.102;2023-07-13T04:03:41;2.78;;;2.00;;
74945;SDS011;63509;45.250;38.102;2023-07-13T04:06:12;3.58;;;2.00;;
74945;SDS011;63509;45.250;38.102;2023-07-13T04:08:47;4.85;;;2.70;;
74945;SDS011;63509;45.250;38.102;2023-07-13T04:11:16;2.55;;;1.80;;
74945;SDS011;63509;45.250;38.102;2023-07-13T04:13:43;4.60;;;2.00;;
74945;SDS011;63509;45.250;38.102;2023-07-13T04:16:10;3.97;;;2.92;;
74945;SDS011;63509;45.250;38.102;2023-07-13T04:18:37;16.05;;;3.38;;
74945;SDS011;63509;45.250;38.102;2023-07-13T04:21:03;4.90;;;2.40;;
74945;SDS011;63509;45.250;38.102;2023-07-13T04:23:30;3.17;;;1.65;;
74945;SDS011;63509;45.250;38.102;2023-07-13T04:25:56;5.82;;;3.15;;
74945;SDS011;63509;45.250;38.102;2023-07-13T04:28:22;7.20;;;2.53;;
74945;SDS011;63509;45.250;38.102;2023-07-13T04:30:49;4.82;;;2.38;;
74945;SDS011;63509;45.250;38.102;2023-07-13T04:33:16;2.97;;;1.83;;
74945;SDS011;63509;45.250;38.102;2023-07-13T04:35:43;4.38;;;2.47;;
74945;SDS011;63509;45.250;38.102;2023-07-13T04:38:09;4.43;;;2.30;;
74945;SDS011;63509;45.250;38.102;2023-07-13T04:40:36;3.33;;;2.45;;
74945;SDS011;63509;45.250;38.102;2023-07-13T04:43:03;2.92;;;1.52;;
74945;SDS011;63509;45.250;38.102;2023-07-13T04:45:29;3.90;;;1.70;;
74945;SDS011;63509;45.250;38.102;2023-07-13T04:47:57;3.00;;;1.88;;
74945;SDS011;63509;45.250;38.102;2023-07-13T04:50:23;10.63;;;2.17;;
74945;SDS011;63509;45.250;38.102;2023-07-13T04:52:50;3.17;;;1.95;;
74945;SDS011;63509;45.250;38.102;2023-07-13T04:55:16;3.22;;;2.30;;
74945;SDS011;63509;45.250;38.102;2023-07-13T04:57:43;5.32;;;2.85;;
74945;SDS011;63509;45.250;38.102;2023-07-13T05:00:10;2.20;;;1.13;;
74945;SDS011;63509;45.250;38.102;2023-07-13T05:02:38;2.15;;;1.55;;
74945;SDS011;63509;45.250;38.102;2023-07-13T05:05:05;1.85;;;1.02;;
74945;SDS011;63509;45.250;38.102;2023-07-13T05:07:32;2.70;;;1.95;;
74945;SDS011;63509;45.250;38.102;2023-07-13T05:10:01;4.78;;;1.67;;
74945;SDS011;63509;45.250;38.102;2023-07-13T05:12:29;4.65;;;1.40;;
74945;SDS011;63509;45.250;38.102;2023-07-13T05:14:55;1.77;;;1.13;;
74945;SDS011;63509;45.250;38.102;2023-07-13T05:17:22;2.60;;;1.10;;
74945;SDS011;63509;45.250;38.102;2023-07-13T05:19:48;2.00;;;1.25;;
74945;SDS011;63509;45.250;38.102;2023-07-13T05:22:14;4.50;;;1.60;;
74945;SDS011;63509;45.250;38.102;2023-07-13T05:24:40;4.72;;;2.00;;
74945;SDS011;63509;45.250;38.102;2023-07-13T05:27:07;2.17;;;1.50;;
74945;SDS011;63509;45.250;38.102;2023-07-13T05:29:33;2.67;;;1.23;;
74945;SDS011;63509;45.250;38.102;2023-07-13T05:31:59;1.52;;;0.88;;
74945;SDS011;63509;45.250;38.102;2023-07-13T05:34:26;2.60;;;1.20;;
74945;SDS011;63509;45.250;38.102;2023-07-13T05:36:52;4.10;;;1.75;;
74945;SDS011;63509;45.250;38.102;2023-07-13T05:39:18;3.20;;;1.65;;
74945;SDS011;63509;45.250;38.102;2023-07-13T05:41:44;2.65;;;1.55;;
74945;SDS011;63509;45.250;38.102;2023-07-13T05:44:11;2.67;;;1.50;;
74945;SDS011;63509;45.250;38.102;2023-07-13T05:46:37;3.72;;;1.73;;
74945;SDS011;63509;45.250;38.102;2023-07-13T05:49:03;2.05;;;0.98;;
74945;SDS011;63509;45.250;38.102;2023-07-13T05:51:29;3.83;;;1.60;;
74945;SDS011;63509;45.250;38.102;2023-07-13T05:53:55;2.58;;;1.42;;
74945;SDS011;63509;45.250;38.102;2023-07-13T05:56:21;2.70;;;1.42;;
74945;SDS011;63509;45.250;38.102;2023-07-13T05:58:48;4.53;;;1.15;;
74945;SDS011;63509;45.250;38.102;2023-07-13T06:01:15;3.65;;;1.50;;
74945;SDS011;63509;45.250;38.102;2023-07-13T06:03:41;2.35;;;1.45;;
74945;SDS011;63509;45.250;38.102;2023-07-13T06:06:08;1.95;;;1.02;;
74945;SDS011;63509;45.250;38.102;2023-07-13T06:08:37;4.72;;;1.80;;
74945;SDS011;63509;45.250;38.102;2023-07-13T06:11:04;2.90;;;1.67;;
74945;SDS011;63509;45.250;38.102;2023-07-13T06:13:32;2.70;;;1.35;;
74945;SDS011;63509;45.250;38.102;2023-07-13T06:15:59;3.80;;;1.27;;
74945;SDS011;63509;45.250;38.102;2023-07-13T06:18:26;6.65;;;1.30;;
74945;SDS011;63509;45.250;38.102;2023-07-13T06:20:52;2.00;;;0.98;;
74945;SDS011;63509;45.250;38.102;2023-07-13T06:23:18;3.95;;;1.20;;
74945;SDS011;63509;45.250;38.102;2023-07-13T06:25:44;9.90;;;1.13;;
74945;SDS011;63509;45.250;38.102;2023-07-13T06:28:10;2.05;;;1.02;;
74945;SDS011;63509;45.250;38.102;2023-07-13T06:30:38;2.22;;;0.98;;
74945;SDS011;63509;45.250;38.102;2023-07-13T06:33:05;3.45;;;1.30;;
74945;SDS011;63509;45.250;38.102;2023-07-13T06:35:31;5.18;;;1.45;;
74945;SDS011;63509;45.250;38.102;2023-07-13T06:37:57;2.30;;;1.10;;
74945;SDS011;63509;45.250;38.102;2023-07-13T06:40:23;1.48;;;0.65;;
74945;SDS011;63509;45.250;38.102;2023-07-13T06:42:49;1.63;;;0.80;;
74945;SDS011;63509;45.250;38.102;2023-07-13T06:45:16;1.90;;;0.93;;
74945;SDS011;63509;45.250;38.102;2023-07-13T06:47:42;1.95;;;0.85;;
74945;SDS011;63509;45.250;38.102;2023-07-13T06:50:08;3.72;;;1.80;;
74945;SDS011;63509;45.250;38.102;2023-07-13T06:52:34;2.45;;;1.42;;
74945;SDS011;63509;45.250;38.102;2023-07-13T06:55:01;4.22;;;1.10;;
74945;SDS011;63509;45.250;38.102;2023-07-13T06:57:27;2.42;;;1.00;;
74945;SDS011;63509;45.250;38.102;2023-07-13T06:59:53;1.85;;;0.85;;
74945;SDS011;63509;45.250;38.102;2023-07-13T07:02:19;6.50;;;1.30;;
74945;SDS011;63509;45.250;38.102;2023-07-13T07:04:45;2.47;;;0.95;;
74945;SDS011;63509;45.250;38.102;2023-07-13T07:07:11;6.43;;;1.20;;
74945;SDS011;63509;45.250;38.102;2023-07-13T07:09:38;12.35;;;1.27;;
74945;SDS011;63509;45.250;38.102;2023-07-13T07:12:04;2.15;;;1.00;;
74945;SDS011;63509;45.250;38.102;2023-07-13T07:14:30;2.35;;;0.98;;
74945;SDS011;63509;45.250;38.102;2023-07-13T07:16:57;2.67;;;0.95;;
74945;SDS011;63509;45.250;38.102;2023-07-13T07:19:24;2.33;;;1.35;;
74945;SDS011;63509;45.250;38.102;2023-07-13T07:21:50;1.90;;;0.93;;
74945;SDS011;63509;45.250;38.102;2023-07-13T07:24:16;1.52;;;0.93;;
74945;SDS011;63509;45.250;38.102;2023-07-13T07:26:42;4.10;;;1.55;;
74945;SDS011;63509;45.250;38.102;2023-07-13T07:29:08;2.67;;;0.77;;
74945;SDS011;63509;45.250;38.102;2023-07-13T07:31:34;2.40;;;0.75;;
74945;SDS011;63509;45.250;38.102;2023-07-13T07:34:02;4.97;;;1.10;;
74945;SDS011;63509;45.250;38.102;2023-07-13T07:36:29;3.42;;;1.17;;
74945;SDS011;63509;45.250;38.102;2023-07-13T07:38:55;3.58;;;0.95;;
74945;SDS011;63509;45.250;38.102;2023-07-13T07:41:21;2.22;;;1.08;;
74945;SDS011;63509;45.250;38.102;2023-07-13T07:43:47;2.45;;;1.00;;
74945;SDS011;63509;45.250;38.102;2023-07-13T07:46:13;1.95;;;0.85;;
74945;SDS011;63509;45.250;38.102;2023-07-13T07:48:40;2.03;;;0.77;;
74945;SDS011;63509;45.250;38.102;2023-07-13T07:51:06;1.63;;;0.75;;
74945;SDS011;63509;45.250;38.102;2023-07-13T07:53:32;1.58;;;0.80;;
74945;SDS011;63509;45.250;38.102;2023-07-13T07:55:58;1.63;;;0.70;;
74945;SDS011;63509;45.250;38.102;2023-07-13T07:58:24;3.80;;;0.77;;
74945;SDS011;63509;45.250;38.102;2023-07-13T08:00:50;2.10;;;0.95;;
74945;SDS011;63509;45.250;38.102;2023-07-13T08:03:17;2.53;;;1.10;;
74945;SDS011;63509;45.250;38.102;2023-07-13T08:05:43;5.10;;;1.00;;
74945;SDS011;63509;45.250;38.102;2023-07-13T08:08:09;2.70;;;0.90;;
74945;SDS011;63509;45.250;38.102;2023-07-13T08:10:35;2.20;;;1.13;;
74945;SDS011;63509;45.250;38.102;2023-07-13T08:13:02;1.75;;;0.80;;
74945;SDS011;63509;45.250;38.102;2023-07-13T08:15:29;2.75;;;1.13;;
74945;SDS011;63509;45.250;38.102;2023-07-13T08:17:54;3.20;;;0.90;;
74945;SDS011;63509;45.250;38.102;2023-07-13T08:20:21;5.72;;;1.50;;
74945;SDS011;63509;45.250;38.102;2023-07-13T08:22:47;4.55;;;1.48;;
74945;SDS011;63509;45.250;38.102;2023-07-13T08:25:13;10.45;;;2.10;;
74945;SDS011;63509;45.250;38.102;2023-07-13T08:27:39;4.40;;;1.10;;
74945;SDS011;63509;45.250;38.102;2023-07-13T08:30:05;4.43;;;1.48;;
74945;SDS011;63509;45.250;38.102;2023-07-13T08:32:33;3.42;;;1.00;;
74945;SDS011;63509;45.250;38.102;2023-07-13T08:35:00;3.83;;;0.70;;
74945;SDS011;63509;45.250;38.102;2023-07-13T08:37:26;2.58;;;0.80;;
74945;SDS011;63509;45.250;38.102;2023-07-13T08:39:52;2.65;;;1.45;;
74945;SDS011;63509;45.250;38.102;2023-07-13T08:42:22;4.63;;;0.82;;
74945;SDS011;63509;45.250;38.102;2023-07-13T08:47:37;3.65;;;0.82;;
74945;SDS011;63509;45.250;38.102;2023-07-13T08:50:09;2.08;;;0.90;;
74945;SDS011;63509;45.250;38.102;2023-07-13T08:52:38;1.55;;;0.63;;
74945;SDS011;63509;45.250;38.102;2023-07-13T08:55:11;1.75;;;0.70;;
74945;SDS011;63509;45.250;38.102;2023-07-13T08:57:44;2.33;;;0.93;;
74945;SDS011;63509;45.250;38.102;2023-07-13T09:00:15;2.88;;;0.60;;
74945;SDS011;63509;45.250;38.102;2023-07-13T09:02:45;1.60;;;0.80;;
74945;SDS011;63509;45.250;38.102;2023-07-13T09:10:53;1.50;;;0.60;;
74945;SDS011;63509;45.250;38.102;2023-07-13T09:16:59;1.88;;;0.73;;
74945;SDS011;63509;45.250;38.102;2023-07-13T09:19:28;1.77;;;0.70;;
74945;SDS011;63509;45.250;38.102;2023-07-13T09:21:58;2.80;;;0.90;;
74945;SDS011;63509;45.250;38.102;2023-07-13T09:27:38;1.75;;;0.80;;
74945;SDS011;63509;45.250;38.102;2023-07-13T09:32:43;1.85;;;0.80;;
74945;SDS011;63509;45.250;38.102;2023-07-13T09:35:16;1.83;;;0.90;;
74945;SDS011;63509;45.250;38.102;2023-07-13T09:37:45;3.47;;;1.00;;
74945;SDS011;63509;45.250;38.102;2023-07-13T09:40:23;2.55;;;1.00;;
74945;SDS011;63509;45.250;38.102;2023-07-13T09:42:55;1.65;;;0.80;;
74945;SDS011;63509;45.250;38.102;2023-07-13T09:47:59;2.40;;;0.80;;
74945;SDS011;63509;45.250;38.102;2023-07-13T09:50:34;1.35;;;0.80;;
74945;SDS011;63509;45.250;38.102;2023-07-13T09:53:00;1.23;;;0.73;;
74945;SDS011;63509;45.250;38.102;2023-07-13T09:55:31;3.00;;;1.15;;
74945;SDS011;63509;45.250;38.102;2023-07-13T10:00:36;2.88;;;1.02;;
74945;SDS011;63509;45.250;38.102;2023-07-13T10:03:19;1.77;;;0.73;;
74945;SDS011;63509;45.250;38.102;2023-07-13T10:05:48;2.10;;;0.80;;
74945;SDS011;63509;45.250;38.102;2023-07-13T10:08:26;3.75;;;0.70;;
74945;SDS011;63509;45.250;38.102;2023-07-13T10:11:09;1.67;;;0.85;;
74945;SDS011;63509;45.250;38.102;2023-07-13T10:13:42;2.60;;;1.10;;
74945;SDS011;63509;45.250;38.102;2023-07-13T10:16:30;4.95;;;1.05;;
74945;SDS011;63509;45.250;38.102;2023-07-13T10:18:59;3.25;;;1.38;;
74945;SDS011;63509;45.250;38.102;2023-07-13T10:21:38;2.45;;;1.10;;
74945;SDS011;63509;45.250;38.102;2023-07-13T10:24:12;2.03;;;0.95;;
74945;SDS011;63509;45.250;38.102;2023-07-13T10:26:46;2.05;;;0.95;;
74945;SDS011;63509;45.250;38.102;2023-07-13T10:29:19;2.95;;;0.93;;
74945;SDS011;63509;45.250;38.102;2023-07-13T10:31:48;6.07;;;0.70;;
74945;SDS011;63509;45.250;38.102;2023-07-13T10:34:14;2.15;;;1.13;;
74945;SDS011;63509;45.250;38.102;2023-07-13T10:36:44;2.60;;;1.00;;
74945;SDS011;63509;45.250;38.102;2023-07-13T10:39:17;1.63;;;0.70;;
74945;SDS011;63509;45.250;38.102;2023-07-13T10:41:51;2.08;;;0.63;;
74945;SDS011;63509;45.250;38.102;2023-07-13T10:44:22;1.40;;;0.75;;
74945;SDS011;63509;45.250;38.102;2023-07-13T10:47:07;1.58;;;0.70;;
74945;SDS011;63509;45.250;38.102;2023-07-13T10:49:39;1.77;;;0.82;;
74945;SDS011;63509;45.250;38.102;2023-07-13T10:55:29;1.75;;;0.90;;
74945;SDS011;63509;45.250;38.102;2023-07-13T10:58:40;2.15;;;0.95;;
74945;SDS011;63509;45.250;38.102;2023-07-13T11:03:39;2.67;;;1.30;;
74945;SDS011;63509;45.250;38.102;2023-07-13T11:06:29;1.38;;;0.73;;
74945;SDS011;63509;45.250;38.102;2023-07-13T11:10:04;4.40;;;1.30;;
74945;SDS011;63509;45.250;38.102;2023-07-13T11:12:25;2.05;;;0.90;;
74945;SDS011;63509;45.250;38.102;2023-07-13T11:28:03;6.45;;;1.20;;
74945;SDS011;63509;45.250;38.102;2023-07-13T11:30:37;2.20;;;1.20;;
74945;SDS011;63509;45.250;38.102;2023-07-13T11:33:25;1.60;;;0.82;;
74945;SDS011;63509;45.250;38.102;2023-07-13T11:36:18;3.75;;;1.65;;
74945;SDS011;63509;45.250;38.102;2023-07-13T11:41:45;1.92;;;0.93;;
74945;SDS011;63509;45.250;38.102;2023-07-13T11:44:18;1.20;;;0.52;;
74945;SDS011;63509;45.250;38.102;2023-07-13T11:46:50;2.38;;;1.23;;
74945;SDS011;63509;45.250;38.102;2023-07-13T11:49:19;2.10;;;1.13;;
74945;SDS011;63509;45.250;38.102;2023-07-13T11:51:47;2.60;;;0.80;;
74945;SDS011;63509;45.250;38.102;2023-07-13T11:56:55;3.13;;;1.02;;
74945;SDS011;63509;45.250;38.102;2023-07-13T11:59:29;1.42;;;0.70;;
74945;SDS011;63509;45.250;38.102;2023-07-13T12:01:58;5.68;;;1.05;;
74945;SDS011;63509;45.250;38.102;2023-07-13T12:07:16;1.80;;;0.93;;
74945;SDS011;63509;45.250;38.102;2023-07-13T12:09:43;4.70;;;1.38;;
74945;SDS011;63509;45.250;38.102;2023-07-13T12:12:10;2.53;;;0.98;;
74945;SDS011;63509;45.250;38.102;2023-07-13T12:14:38;2.45;;;0.90;;
74945;SDS011;63509;45.250;38.102;2023-07-13T12:17:16;3.88;;;1.13;;
74945;SDS011;63509;45.250;38.102;2023-07-13T12:19:47;4.47;;;1.52;;
74945;SDS011;63509;45.250;38.102;2023-07-13T12:24:41;1.17;;;0.52;;
74945;SDS011;63509;45.250;38.102;2023-07-13T12:27:19;1.73;;;0.80;;
74945;SDS011;63509;45.250;38.102;2023-07-13T12:29:51;2.03;;;0.95;;
74945;SDS011;63509;45.250;38.102;2023-07-13T12:32:19;1.92;;;0.90;;
74945;SDS011;63509;45.250;38.102;2023-07-13T12:34:53;1.95;;;0.98;;
74945;SDS011;63509;45.250;38.102;2023-07-13T12:37:33;2.70;;;0.90;;
74945;SDS011;63509;45.250;38.102;2023-07-13T12:40:00;2.60;;;1.08;;
74945;SDS011;63509;45.250;38.102;2023-07-13T12:42:31;1.77;;;0.93;;
74945;SDS011;63509;45.250;38.102;2023-07-13T12:44:59;7.03;;;1.05;;
74945;SDS011;63509;45.250;38.102;2023-07-13T12:47:28;2.47;;;0.90;;
74945;SDS011;63509;45.250;38.102;2023-07-13T12:49:56;1.67;;;0.93;;
74945;SDS011;63509;45.250;38.102;2023-07-13T12:52:29;3.75;;;1.30;;
74945;SDS011;63509;45.250;38.102;2023-07-13T12:55:09;4.43;;;1.10;;
74945;SDS011;63509;45.250;38.102;2023-07-13T12:57:44;3.33;;;0.80;;
74945;SDS011;63509;45.250;38.102;2023-07-13T13:00:24;2.28;;;1.02;;
74945;SDS011;63509;45.250;38.102;2023-07-13T13:02:54;2.53;;;1.23;;
74945;SDS011;63509;45.250;38.102;2023-07-13T13:05:25;1.77;;;0.90;;
74945;SDS011;63509;45.250;38.102;2023-07-13T13:07:52;2.05;;;0.73;;
74945;SDS011;63509;45.250;38.102;2023-07-13T13:10:18;1.50;;;0.80;;
74945;SDS011;63509;45.250;38.102;2023-07-13T13:12:46;1.42;;;0.65;;
74945;SDS011;63509;45.250;38.102;2023-07-13T13:15:13;3.15;;;0.93;;
74945;SDS011;63509;45.250;38.102;2023-07-13T13:17:39;1.70;;;0.98;;
74945;SDS011;63509;45.250;38.102;2023-07-13T13:20:23;1.95;;;1.13;;
74945;SDS011;63509;45.250;38.102;2023-07-13T13:22:51;2.08;;;1.05;;
74945;SDS011;63509;45.250;38.102;2023-07-13T13:25:17;2.30;;;0.90;;
74945;SDS011;63509;45.250;38.102;2023-07-13T13:27:45;5.13;;;1.00;;
74945;SDS011;63509;45.250;38.102;2023-07-13T13:30:12;1.70;;;1.00;;
74945;SDS011;63509;45.250;38.102;2023-07-13T13:32:41;2.55;;;1.00;;
74945;SDS011;63509;45.250;38.102;2023-07-13T13:35:13;5.55;;;1.42;;
74945;SDS011;63509;45.250;38.102;2023-07-13T13:37:40;3.40;;;0.93;;
74945;SDS011;63509;45.250;38.102;2023-07-13T13:40:28;1.65;;;0.85;;
74945;SDS011;63509;45.250;38.102;2023-07-13T13:42:54;4.75;;;1.00;;
74945;SDS011;63509;45.250;38.102;2023-07-13T13:45:21;2.88;;;1.33;;
74945;SDS011;63509;45.250;38.102;2023-07-13T13:47:47;1.88;;;0.90;;
74945;SDS011;63509;45.250;38.102;2023-07-13T13:50:15;1.85;;;0.90;;
74945;SDS011;63509;45.250;38.102;2023-07-13T13:52:47;2.80;;;1.35;;
74945;SDS011;63509;45.250;38.102;2023-07-13T13:55:13;1.77;;;0.98;;
74945;SDS011;63509;45.250;38.102;2023-07-13T13:57:41;3.92;;;1.10;;
74945;SDS011;63509;45.250;38.102;2023-07-13T14:00:08;2.50;;;1.25;;
74945;SDS011;63509;45.250;38.102;2023-07-13T14:02:40;2.70;;;0.85;;
74945;SDS011;63509;45.250;38.102;2023-07-13T14:05:13;1.80;;;0.95;;
74945;SDS011;63509;45.250;38.102;2023-07-13T14:07:41;2.20;;;1.13;;
74945;SDS011;63509;45.250;38.102;2023-07-13T14:10:12;3.55;;;1.27;;
74945;SDS011;63509;45.250;38.102;2023-07-13T14:12:41;2.15;;;0.90;;
74945;SDS011;63509;45.250;38.102;2023-07-13T14:15:18;2.47;;;1.10;;
74945;SDS011;63509;45.250;38.102;2023-07-13T14:20:17;1.73;;;0.80;;
74945;SDS011;63509;45.250;38.102;2023-07-13T14:22:45;1.83;;;1.20;;
74945;SDS011;63509;45.250;38.102;2023-07-13T14:25:12;4.72;;;2.17;;
74945;SDS011;63509;45.250;38.102;2023-07-13T14:27:40;2.42;;;1.10;;
74945;SDS011;63509;45.250;38.102;2023-07-13T14:30:18;1.98;;;1.13;;
74945;SDS011;63509;45.250;38.102;2023-07-13T14:32:46;2.10;;;1.08;;
74945;SDS011;63509;45.250;38.102;2023-07-13T14:35:13;1.70;;;1.00;;
74945;SDS011;63509;45.250;38.102;2023-07-13T14:37:40;2.83;;;1.27;;
74945;SDS011;63509;45.250;38.102;2023-07-13T14:40:17;6.10;;;1.77;;
74945;SDS011;63509;45.250;38.102;2023-07-13T14:42:48;1.67;;;0.90;;
74945;SDS011;63509;45.250;38.102;2023-07-13T14:45:15;1.92;;;0.95;;
74945;SDS011;63509;45.250;38.102;2023-07-13T14:47:44;2.38;;;1.15;;
74945;SDS011;63509;45.250;38.102;2023-07-13T14:50:15;2.42;;;1.30;;
74945;SDS011;63509;45.250;38.102;2023-07-13T14:52:47;3.63;;;1.02;;
74945;SDS011;63509;45.250;38.102;2023-07-13T14:55:14;3.85;;;1.27;;
74945;SDS011;63509;45.250;38.102;2023-07-13T14:57:43;2.65;;;1.20;;
74945;SDS011;63509;45.250;38.102;2023-07-13T15:00:14;3.58;;;1.00;;
74945;SDS011;63509;45.250;38.102;2023-07-13T15:02:43;3.70;;;1.67;;
74945;SDS011;63509;45.250;38.102;2023-07-13T15:05:14;4.18;;;1.23;;
74945;SDS011;63509;45.250;38.102;2023-07-13T15:07:46;3.05;;;1.85;;
74945;SDS011;63509;45.250;38.102;2023-07-13T15:10:16;3.78;;;1.10;;
74945;SDS011;63509;45.250;38.102;2023-07-13T15:12:44;6.13;;;2.17;;
74945;SDS011;63509;45.250;38.102;2023-07-13T15:15:11;2.53;;;1.38;;
74945;SDS011;63509;45.250;38.102;2023-07-13T15:17:39;3.58;;;1.40;;
74945;SDS011;63509;45.250;38.102;2023-07-13T15:20:19;2.33;;;1.10;;
74945;SDS011;63509;45.250;38.102;2023-07-13T15:22:51;4.80;;;1.20;;
74945;SDS011;63509;45.250;38.102;2023-07-13T15:25:18;2.38;;;1.27;;
74945;SDS011;63509;45.250;38.102;2023-07-13T15:27:47;2.95;;;1.42;;
74945;SDS011;63509;45.250;38.102;2023-07-13T15:30:13;4.20;;;1.58;;
74945;SDS011;63509;45.250;38.102;2023-07-13T15:32:44;2.90;;;0.93;;
74945;SDS011;63509;45.250;38.102;2023-07-13T15:35:16;1.80;;;1.02;;
74945;SDS011;63509;45.250;38.102;2023-07-13T15:37:46;3.67;;;1.33;;
74945;SDS011;63509;45.250;38.102;2023-07-13T15:40:15;2.85;;;0.95;;
74945;SDS011;63509;45.250;38.102;2023-07-13T15:42:42;1.02;;;0.57;;
74945;SDS011;63509;45.250;38.102;2023-07-13T15:45:23;2.60;;;1.30;;